createdAt,value
2023-05-19T00:02:26.061Z,11.60
2023-05-19T00:04:53.219Z,11.60
2023-05-19T00:07:21.166Z,11.50
2023-05-19T00:09:48.229Z,11.50
2023-05-19T00:12:15.624Z,11.50
2023-05-19T00:14:42.531Z,11.40
2023-05-19T00:17:09.560Z,11.40
2023-05-19T00:19:36.186Z,11.40
2023-05-19T00:22:02.853Z,11.40
2023-05-19T00:24:29.630Z,11.30
2023-05-19T00:26:56.432Z,11.30
2023-05-19T00:29:23.205Z,11.30
2023-05-19T00:31:49.978Z,11.20
2023-05-19T00:34:16.713Z,11.20
2023-05-19T00:36:43.474Z,11.20
2023-05-19T00:39:10.103Z,11.20
2023-05-19T00:41:36.838Z,11.20
2023-05-19T00:44:03.596Z,11.10
2023-05-19T00:46:30.710Z,11.10
2023-05-19T00:48:57.430Z,11.10
2023-05-19T00:51:27.358Z,11.00
2023-05-19T00:53:54.266Z,11.00
2023-05-19T00:56:21.734Z,11.00
2023-05-19T00:58:50.678Z,11.00
2023-05-19T01:01:18.901Z,10.90
2023-05-19T01:03:47.170Z,10.90
2023-05-19T01:06:15.060Z,10.90
2023-05-19T01:08:41.801Z,10.90
2023-05-19T01:11:08.655Z,10.80
2023-05-19T01:13:36.872Z,10.80
2023-05-19T01:16:13.102Z,10.80
2023-05-19T01:19:01.612Z,10.80
2023-05-19T01:21:55.717Z,10.70
2023-05-19T01:24:42.619Z,10.70
2023-05-19T01:27:41.763Z,10.70
2023-05-19T01:30:08.356Z,10.70
2023-05-19T01:32:36.493Z,10.70
2023-05-19T01:35:05.563Z,10.60
2023-05-19T01:37:33.482Z,10.60
2023-05-19T01:40:00.932Z,10.50
2023-05-19T01:42:29.561Z,10.50
2023-05-19T01:44:56.926Z,10.50
2023-05-19T01:47:23.759Z,10.50
2023-05-19T01:49:50.450Z,10.50
2023-05-19T01:52:17.142Z,10.40
2023-05-19T01:54:43.782Z,10.40
2023-05-19T01:57:22.469Z,10.40
2023-05-19T02:00:05.482Z,10.40
2023-05-19T02:02:43.850Z,10.40
2023-05-19T02:05:28.708Z,10.40
2023-05-19T02:08:04.504Z,10.30
2023-05-19T02:10:36.640Z,10.30
2023-05-19T02:13:06.977Z,10.30
2023-05-19T02:15:42.007Z,10.30
2023-05-19T02:18:11.763Z,10.30
2023-05-19T02:20:42.492Z,10.20
2023-05-19T02:23:09.238Z,10.20
2023-05-19T02:25:35.865Z,10.20
2023-05-19T02:28:02.585Z,10.20
2023-05-19T02:30:31.689Z,10.20
2023-05-19T02:32:58.573Z,10.20
2023-05-19T02:35:25.314Z,10.20
2023-05-19T02:37:52.035Z,10.20
2023-05-19T02:40:18.830Z,10.20
2023-05-19T02:42:45.443Z,10.20
2023-05-19T02:45:12.169Z,10.10
2023-05-19T02:47:38.964Z,10.10
2023-05-19T02:50:06.445Z,10.10
2023-05-19T02:52:33.128Z,10.10
2023-05-19T02:54:59.923Z,10.00
2023-05-19T02:57:29.389Z,10.00
2023-05-19T02:59:56.244Z,10.00
2023-05-19T03:02:23.259Z,10.00
2023-05-19T03:04:50.058Z,10.00
2023-05-19T03:07:16.885Z,10.00
2023-05-19T03:09:43.521Z,10.00
2023-05-19T03:12:10.305Z,10.00
2023-05-19T03:14:37.711Z,9.90
2023-05-19T03:17:07.519Z,9.90
2023-05-19T03:19:34.268Z,9.90
2023-05-19T03:22:01.063Z,9.90
2023-05-19T03:24:27.786Z,9.90
2023-05-19T03:26:54.493Z,9.80
2023-05-19T03:29:21.498Z,9.80
2023-05-19T03:31:48.152Z,9.80
2023-05-19T03:34:14.873Z,9.80
2023-05-19T03:36:41.594Z,9.80
2023-05-19T03:39:09.221Z,9.80
2023-05-19T03:41:36.027Z,9.80
2023-05-19T03:44:02.646Z,9.80
2023-05-19T03:46:29.381Z,9.80
2023-05-19T03:48:56.107Z,9.80
2023-05-19T03:51:22.851Z,9.80
2023-05-19T03:53:49.474Z,9.80
2023-05-19T03:56:18.092Z,9.70
2023-05-19T03:58:45.094Z,9.70
2023-05-19T04:01:12.139Z,9.70
2023-05-19T04:03:38.857Z,9.70
2023-05-19T04:06:05.911Z,9.70
2023-05-19T04:08:32.749Z,9.70
2023-05-19T04:10:59.454Z,9.70
2023-05-19T04:13:26.233Z,9.60
2023-05-19T04:15:53.235Z,9.70
2023-05-19T04:18:19.959Z,9.60
2023-05-19T04:20:46.768Z,9.60
2023-05-19T04:23:13.404Z,9.60
2023-05-19T04:25:40.869Z,9.60
2023-05-19T04:28:07.683Z,9.60
2023-05-19T04:30:34.674Z,9.60
2023-05-19T04:33:03.187Z,9.60
2023-05-19T04:35:29.967Z,9.60
2023-05-19T04:37:56.757Z,9.60
2023-05-19T04:40:23.847Z,9.60
2023-05-19T04:42:52.229Z,9.60
2023-05-19T04:45:18.954Z,9.60
2023-05-19T04:47:48.120Z,9.60
2023-05-19T04:50:16.737Z,9.70
2023-05-19T04:52:45.440Z,9.70
2023-05-19T04:55:13.287Z,9.60
2023-05-19T04:57:40.191Z,9.70
2023-05-19T05:00:13.625Z,9.60
2023-05-19T05:02:41.395Z,9.70
2023-05-19T05:05:09.377Z,9.70
2023-05-19T05:07:36.431Z,9.70
2023-05-19T05:10:04.002Z,9.70
2023-05-19T05:12:31.479Z,9.80
2023-05-19T05:14:58.603Z,9.70
2023-05-19T05:17:25.768Z,9.80
2023-05-19T05:19:52.935Z,9.80
2023-05-19T05:22:19.900Z,9.80
2023-05-19T05:24:46.851Z,9.80
2023-05-19T05:27:14.450Z,9.80
2023-05-19T05:29:41.142Z,9.90
2023-05-19T05:32:08.045Z,9.90
2023-05-19T05:34:35.898Z,10.00
2023-05-19T05:37:02.529Z,10.00
2023-05-19T05:39:29.180Z,10.10
2023-05-19T05:41:55.887Z,10.10
2023-05-19T05:44:22.652Z,10.10
2023-05-19T05:46:49.551Z,10.20
2023-05-19T05:49:16.453Z,10.20
2023-05-19T05:51:54.334Z,10.30
2023-05-19T05:54:30.581Z,10.30
2023-05-19T05:56:57.498Z,10.40
2023-05-19T05:59:24.243Z,10.50
2023-05-19T06:01:51.009Z,10.50
2023-05-19T06:04:17.807Z,10.60
2023-05-19T06:06:44.461Z,10.60
2023-05-19T06:09:12.383Z,10.70
2023-05-19T06:11:39.051Z,10.80
2023-05-19T06:14:05.789Z,10.80
2023-05-19T06:16:32.557Z,10.90
2023-05-19T06:18:59.415Z,11.00
2023-05-19T06:21:26.128Z,11.10
2023-05-19T06:23:53.302Z,11.20
2023-05-19T06:26:20.009Z,11.30
2023-05-19T06:28:46.703Z,11.30
2023-05-19T06:31:13.413Z,11.40
2023-05-19T06:33:40.093Z,11.40
2023-05-19T06:36:08.386Z,11.60
2023-05-19T06:38:35.085Z,11.70
2023-05-19T06:41:01.708Z,11.80
2023-05-19T06:43:28.758Z,11.80
2023-05-19T06:45:55.394Z,11.90
2023-05-19T06:48:22.110Z,12.00
2023-05-19T06:50:48.771Z,12.10
2023-05-19T06:53:17.401Z,12.10
2023-05-19T06:55:54.769Z,12.20
2023-05-19T06:58:25.161Z,12.30
2023-05-19T07:00:51.833Z,12.40
2023-05-19T07:03:18.731Z,12.50
2023-05-19T07:05:46.092Z,12.60
2023-05-19T07:08:12.695Z,12.70
2023-05-19T07:10:39.423Z,12.80
2023-05-19T07:13:06.202Z,12.90
2023-05-19T07:15:33.063Z,13.00
2023-05-19T07:17:59.964Z,13.10
2023-05-19T07:20:26.733Z,13.20
2023-05-19T07:22:53.432Z,13.30
2023-05-19T07:25:20.131Z,13.40
2023-05-19T07:27:46.853Z,13.50
2023-05-19T07:30:13.553Z,13.60
2023-05-19T07:32:40.178Z,13.80
2023-05-19T07:35:07.262Z,13.90
2023-05-19T07:37:33.916Z,14.00
2023-05-19T07:40:00.642Z,14.10
2023-05-19T07:42:27.324Z,14.30
2023-05-19T07:44:53.929Z,14.40
2023-05-19T07:47:20.733Z,14.50
2023-05-19T07:49:48.634Z,14.70
2023-05-19T07:52:18.287Z,14.80
2023-05-19T07:54:46.078Z,14.90
2023-05-19T07:57:14.412Z,14.90
2023-05-19T07:59:41.061Z,15.00
2023-05-19T08:02:08.044Z,15.10
2023-05-19T08:04:34.859Z,15.20
2023-05-19T08:07:01.543Z,15.20
2023-05-19T08:09:28.214Z,15.30
2023-05-19T08:11:54.936Z,15.30
2023-05-19T08:14:22.745Z,15.40
2023-05-19T08:16:50.076Z,15.50
2023-05-19T08:19:16.808Z,15.60
2023-05-19T08:21:44.620Z,15.70
2023-05-19T08:24:11.583Z,15.70
2023-05-19T08:26:38.295Z,15.80
2023-05-19T08:29:05.311Z,15.80
2023-05-19T08:31:32.260Z,15.90
2023-05-19T08:33:58.906Z,15.90
2023-05-19T08:36:25.816Z,16.00
2023-05-19T08:38:52.413Z,16.00
2023-05-19T08:41:19.099Z,16.10
2023-05-19T08:43:45.964Z,16.20
2023-05-19T08:46:16.266Z,16.20
2023-05-19T08:48:44.523Z,16.30
2023-05-19T08:51:35.158Z,16.30
2023-05-19T08:54:14.607Z,16.50
2023-05-19T08:56:46.423Z,16.60
2023-05-19T08:59:17.170Z,16.70
2023-05-19T09:01:47.145Z,16.80
2023-05-19T09:04:15.296Z,16.90
2023-05-19T09:06:42.376Z,16.90
2023-05-19T09:09:09.241Z,17.00
2023-05-19T09:11:37.659Z,17.00
2023-05-19T09:14:07.431Z,17.10
2023-05-19T09:16:34.537Z,17.20
2023-05-19T09:19:01.425Z,17.30
2023-05-19T09:21:32.396Z,17.50
2023-05-19T09:24:05.120Z,17.70
2023-05-19T09:26:42.497Z,17.80
2023-05-19T09:29:13.976Z,17.90
2023-05-19T09:31:56.033Z,18.00
2023-05-19T09:34:24.785Z,18.00
2023-05-19T09:36:53.459Z,18.00
2023-05-19T09:39:22.464Z,18.00
2023-05-19T09:41:59.032Z,18.00
2023-05-19T09:44:29.378Z,18.20
2023-05-19T09:46:57.096Z,18.30
2023-05-19T09:49:25.513Z,18.50
2023-05-19T09:51:59.392Z,18.60
2023-05-19T09:54:29.699Z,18.80
2023-05-19T09:57:01.163Z,18.90
2023-05-19T09:59:32.069Z,19.10
2023-05-19T10:02:00.707Z,19.20
2023-05-19T10:04:29.365Z,19.30
2023-05-19T10:07:00.997Z,19.40
2023-05-19T10:09:29.498Z,19.50
2023-05-19T10:11:57.844Z,19.60
2023-05-19T10:14:27.647Z,19.60
2023-05-19T10:16:56.637Z,19.60
2023-05-19T10:19:27.900Z,19.70
2023-05-19T10:21:55.781Z,19.80
2023-05-19T10:24:22.495Z,19.80
2023-05-19T10:26:57.340Z,20.00
2023-05-19T10:29:29.600Z,20.10
2023-05-19T10:32:02.543Z,20.30
2023-05-19T10:34:51.076Z,20.40
2023-05-19T10:37:33.945Z,20.40
2023-05-19T10:40:05.495Z,20.50
2023-05-19T10:42:56.253Z,20.60
2023-05-19T10:45:27.723Z,20.70
2023-05-19T10:47:54.886Z,20.80
2023-05-19T10:50:21.708Z,20.90
2023-05-19T10:52:55.865Z,21.00
2023-05-19T10:55:59.072Z,21.00
2023-05-19T10:58:43.964Z,21.10
2023-05-19T11:01:18.249Z,21.00
2023-05-19T11:03:53.465Z,21.20
2023-05-19T11:06:21.545Z,21.20
2023-05-19T11:08:53.480Z,21.30
2023-05-19T11:11:21.156Z,21.40
2023-05-19T11:13:51.401Z,21.40
2023-05-19T11:16:32.449Z,21.50
2023-05-19T11:19:00.287Z,21.60
2023-05-19T11:22:12.256Z,21.70
2023-05-19T11:24:49.806Z,21.70
2023-05-19T11:27:26.143Z,21.70
2023-05-19T11:29:53.660Z,21.70
2023-05-19T11:32:22.158Z,21.70
2023-05-19T11:34:50.048Z,21.70
2023-05-19T11:37:16.756Z,21.70
2023-05-19T11:39:45.265Z,21.60
2023-05-19T11:42:11.971Z,21.70
2023-05-19T11:44:38.705Z,21.70
2023-05-19T11:47:05.851Z,21.80
2023-05-19T11:49:32.681Z,21.80
2023-05-19T11:52:03.092Z,21.70
2023-05-19T11:54:34.892Z,21.70
2023-05-19T11:57:03.730Z,21.70
2023-05-19T11:59:36.074Z,21.70
2023-05-19T12:02:15.998Z,21.70
2023-05-19T12:04:43.178Z,21.70
2023-05-19T12:07:12.265Z,21.60
2023-05-19T12:09:39.322Z,21.60
2023-05-19T12:12:06.306Z,21.60
2023-05-19T12:14:34.421Z,21.60
2023-05-19T12:17:10.917Z,21.70
2023-05-19T12:19:38.028Z,21.70
2023-05-19T12:22:06.508Z,21.70
2023-05-19T12:24:35.609Z,21.70
2023-05-19T12:27:23.508Z,21.70
2023-05-19T12:29:55.178Z,21.80
2023-05-19T12:32:25.855Z,21.80
2023-05-19T12:34:53.659Z,21.80
2023-05-19T12:37:20.493Z,21.80
2023-05-19T12:39:49.288Z,21.80
2023-05-19T12:42:16.586Z,21.80
2023-05-19T12:44:52.368Z,21.70
2023-05-19T12:47:20.067Z,21.80
2023-05-19T12:50:07.688Z,21.80
2023-05-19T12:52:41.766Z,21.90
2023-05-19T12:55:10.778Z,21.90
2023-05-19T12:57:39.656Z,22.00
2023-05-19T13:00:09.419Z,22.20
2023-05-19T13:02:54.172Z,22.30
2023-05-19T13:05:21.440Z,22.40
2023-05-19T13:07:55.915Z,22.50
2023-05-19T13:10:23.048Z,22.60
2023-05-19T13:12:49.855Z,22.60
2023-05-19T13:15:16.614Z,22.80
2023-05-19T13:17:43.559Z,22.80
2023-05-19T13:20:10.623Z,22.90
2023-05-19T13:22:37.881Z,23.00
2023-05-19T13:25:04.900Z,23.10
2023-05-19T13:27:31.538Z,23.20
2023-05-19T13:29:58.218Z,23.40
2023-05-19T13:32:24.970Z,23.50
2023-05-19T13:34:51.794Z,23.60
2023-05-19T13:37:18.613Z,23.70
2023-05-19T13:39:45.977Z,23.70
2023-05-19T13:42:12.702Z,23.80
2023-05-19T13:44:39.452Z,24.00
2023-05-19T13:47:06.095Z,24.10
2023-05-19T13:49:32.832Z,24.30
2023-05-19T13:51:59.854Z,24.50
2023-05-19T13:54:27.034Z,24.50
2023-05-19T13:56:54.137Z,24.70
2023-05-19T13:59:21.533Z,25.00
2023-05-19T14:01:48.250Z,25.10
2023-05-19T14:04:17.914Z,25.30
2023-05-19T14:06:45.232Z,25.30
2023-05-19T14:09:12.462Z,25.20
2023-05-19T14:11:39.180Z,25.10
2023-05-19T14:14:05.877Z,25.20
2023-05-19T14:16:33.229Z,25.30
2023-05-19T14:19:00.052Z,25.40
2023-05-19T14:21:27.297Z,25.40
2023-05-19T14:23:54.041Z,25.40
2023-05-19T14:26:21.946Z,25.40
2023-05-19T14:28:48.811Z,25.40
2023-05-19T14:31:15.637Z,25.30
2023-05-19T14:33:42.732Z,25.30
2023-05-19T14:36:10.092Z,25.30
2023-05-19T14:38:37.090Z,25.20
2023-05-19T14:41:03.927Z,25.10
2023-05-19T14:43:31.049Z,25.00
2023-05-19T14:45:57.722Z,25.00
2023-05-19T14:48:24.359Z,25.10
2023-05-19T14:50:51.107Z,25.10
2023-05-19T14:53:17.970Z,25.10
2023-05-19T14:55:44.833Z,25.00
2023-05-19T14:58:26.902Z,24.80
2023-05-19T15:00:54.796Z,24.70
2023-05-19T15:03:23.131Z,24.60
2023-05-19T15:05:49.860Z,24.60
2023-05-19T15:08:16.599Z,24.60
2023-05-19T15:10:43.298Z,24.60
2023-05-19T15:13:10.291Z,24.60
2023-05-19T15:15:36.971Z,24.60
2023-05-19T15:18:03.698Z,24.50
2023-05-19T15:20:30.351Z,24.40
2023-05-19T15:22:56.959Z,24.50
2023-05-19T15:25:23.624Z,24.50
2023-05-19T15:27:50.444Z,24.50
2023-05-19T15:30:17.051Z,24.50
2023-05-19T15:32:43.690Z,24.50
2023-05-19T15:35:10.430Z,24.50
2023-05-19T15:37:37.173Z,24.40
2023-05-19T15:40:04.496Z,24.30
2023-05-19T15:42:31.180Z,24.20
2023-05-19T15:44:57.848Z,24.20
2023-05-19T15:47:24.527Z,24.20
2023-05-19T15:49:51.547Z,24.20
2023-05-19T15:52:18.211Z,24.20
2023-05-19T15:54:44.996Z,24.30
2023-05-19T15:57:13.395Z,24.30
2023-05-19T15:59:40.049Z,24.40
2023-05-19T16:02:07.224Z,24.30
2023-05-19T16:04:33.965Z,24.30
2023-05-19T16:07:00.616Z,24.40
2023-05-19T16:09:27.355Z,24.40
2023-05-19T16:11:54.048Z,24.50
2023-05-19T16:14:20.710Z,24.50
2023-05-19T16:16:47.571Z,24.50
2023-05-19T16:19:14.388Z,24.50
2023-05-19T16:21:41.056Z,24.40
2023-05-19T16:24:07.697Z,24.30
2023-05-19T16:26:34.514Z,24.10
2023-05-19T16:29:01.168Z,24.00
2023-05-19T16:31:27.986Z,24.10
2023-05-19T16:33:54.725Z,24.10
2023-05-19T16:36:22.811Z,24.00
2023-05-19T16:38:49.514Z,23.80
2023-05-19T16:41:16.307Z,23.60
2023-05-19T16:43:43.037Z,23.50
2023-05-19T16:46:12.043Z,23.40
2023-05-19T16:48:38.967Z,23.40
2023-05-19T16:51:05.729Z,23.40
2023-05-19T16:53:32.410Z,23.30
2023-05-19T16:55:59.318Z,23.20
2023-05-19T16:58:26.832Z,23.10
2023-05-19T17:00:54.685Z,22.90
2023-05-19T17:03:21.749Z,22.70
2023-05-19T17:05:48.533Z,22.50
2023-05-19T17:08:15.253Z,22.40
2023-05-19T17:10:42.136Z,22.40
2023-05-19T17:13:08.793Z,22.40
2023-05-19T17:15:35.468Z,22.50
2023-05-19T17:18:02.228Z,22.60
2023-05-19T17:20:28.939Z,22.50
2023-05-19T17:22:55.620Z,22.40
2023-05-19T17:25:22.321Z,22.30
2023-05-19T17:27:49.237Z,22.20
2023-05-19T17:30:16.526Z,22.10
2023-05-19T17:32:43.236Z,22.00
2023-05-19T17:35:10.161Z,22.00
2023-05-19T17:37:37.128Z,22.00
2023-05-19T17:40:04.116Z,22.00
2023-05-19T17:42:31.618Z,22.00
2023-05-19T17:44:58.446Z,21.90
2023-05-19T17:47:25.113Z,21.90
2023-05-19T17:49:52.997Z,21.80
2023-05-19T17:52:21.541Z,21.70
2023-05-19T17:54:48.601Z,21.60
2023-05-19T17:57:16.976Z,21.50
2023-05-19T17:59:43.882Z,21.30
2023-05-19T18:02:11.920Z,21.20
2023-05-19T18:04:39.020Z,21.20
2023-05-19T18:07:08.919Z,21.10
2023-05-19T18:09:41.266Z,21.00
2023-05-19T18:12:07.988Z,21.00
2023-05-19T18:14:34.617Z,20.90
2023-05-19T18:17:01.334Z,20.80
2023-05-19T18:19:28.188Z,20.80
2023-05-19T18:21:54.885Z,20.70
2023-05-19T18:24:21.773Z,20.60
2023-05-19T18:26:48.462Z,20.50
2023-05-19T18:29:15.090Z,20.40
2023-05-19T18:31:42.008Z,20.30
2023-05-19T18:34:09.883Z,20.30
2023-05-19T18:36:36.598Z,20.10
2023-05-19T18:39:04.424Z,20.10
2023-05-19T18:41:32.021Z,20.00
2023-05-19T18:43:58.796Z,19.90
2023-05-19T18:46:25.592Z,19.90
2023-05-19T18:48:52.850Z,19.80
2023-05-19T18:51:21.262Z,19.70
2023-05-19T18:53:50.016Z,19.70
2023-05-19T18:56:27.212Z,19.60
2023-05-19T18:58:54.663Z,19.50
2023-05-19T19:01:21.532Z,19.40
2023-05-19T19:03:49.198Z,19.30
2023-05-19T19:06:17.270Z,19.30
2023-05-19T19:08:44.476Z,19.20
2023-05-19T19:11:11.309Z,19.10
2023-05-19T19:13:38.309Z,19.00
2023-05-19T19:16:05.984Z,19.00
2023-05-19T19:18:34.484Z,18.90
2023-05-19T19:21:02.509Z,18.90
2023-05-19T19:23:29.334Z,18.80
2023-05-19T19:25:56.504Z,18.70
2023-05-19T19:28:23.640Z,18.60
2023-05-19T19:30:50.393Z,18.60
2023-05-19T19:33:17.208Z,18.50
2023-05-19T19:35:47.114Z,18.40
2023-05-19T19:38:14.037Z,18.40
2023-05-19T19:40:40.837Z,18.30
2023-05-19T19:43:07.592Z,18.30
2023-05-19T19:45:34.887Z,18.20
2023-05-19T19:48:01.802Z,18.10
2023-05-19T19:50:28.553Z,18.10
2023-05-19T19:52:55.407Z,18.00
2023-05-19T19:55:22.126Z,18.00
2023-05-19T19:57:51.018Z,17.90
2023-05-19T20:00:18.489Z,17.80
2023-05-19T20:03:02.678Z,17.70
2023-05-19T20:05:32.040Z,17.70
2023-05-19T20:07:58.675Z,17.60
2023-05-19T20:10:25.420Z,17.60
2023-05-19T20:12:52.290Z,17.50
2023-05-19T20:15:19.630Z,17.40
2023-05-19T20:17:46.500Z,17.30
2023-05-19T20:20:13.508Z,17.30
2023-05-19T20:22:40.314Z,17.20
2023-05-19T20:25:07.363Z,17.20
2023-05-19T20:27:34.147Z,17.10
2023-05-19T20:30:00.842Z,17.10
2023-05-19T20:32:27.763Z,17.00
2023-05-19T20:34:54.430Z,17.00
2023-05-19T20:37:22.196Z,16.90
2023-05-19T20:39:48.952Z,16.90
2023-05-19T20:42:15.621Z,16.80
2023-05-19T20:44:42.461Z,16.70
2023-05-19T20:47:09.495Z,16.70
2023-05-19T20:49:36.396Z,16.70
2023-05-19T20:52:03.252Z,16.70
2023-05-19T20:54:30.067Z,16.60
2023-05-19T20:56:56.745Z,16.60
2023-05-19T20:59:23.397Z,16.60
2023-05-19T21:01:50.108Z,16.50
2023-05-19T21:04:16.931Z,16.50
2023-05-19T21:06:43.629Z,16.40
2023-05-19T21:09:10.737Z,16.40
2023-05-19T21:11:37.520Z,16.40
2023-05-19T21:14:04.394Z,16.30
2023-05-19T21:16:31.874Z,16.30
2023-05-19T21:18:58.718Z,16.20
2023-05-19T21:21:26.019Z,16.20
2023-05-19T21:23:52.719Z,16.10
2023-05-19T21:26:19.350Z,16.10
2023-05-19T21:28:46.152Z,16.10
2023-05-19T21:31:12.873Z,16.00
2023-05-19T21:33:39.577Z,16.00
2023-05-19T21:36:06.503Z,16.00
2023-05-19T21:38:33.244Z,15.90
2023-05-19T21:40:59.906Z,15.90
2023-05-19T21:43:26.742Z,15.90
2023-05-19T21:45:53.361Z,15.80
2023-05-19T21:48:20.631Z,15.80
2023-05-19T21:50:53.434Z,15.80
2023-05-19T21:53:20.438Z,15.70
2023-05-19T21:55:47.082Z,15.70
2023-05-19T21:58:13.775Z,15.70
2023-05-19T22:00:40.623Z,15.60
2023-05-19T22:03:07.361Z,15.60
2023-05-19T22:05:35.262Z,15.60
2023-05-19T22:08:02.084Z,15.50
2023-05-19T22:10:28.704Z,15.50
2023-05-19T22:12:55.508Z,15.50
2023-05-19T22:15:22.284Z,15.50
2023-05-19T22:17:49.021Z,15.40
2023-05-19T22:20:16.373Z,15.40
2023-05-19T22:22:42.987Z,15.40
2023-05-19T22:25:09.742Z,15.30
2023-05-19T22:27:36.685Z,15.30
2023-05-19T22:30:03.589Z,15.30
2023-05-19T22:32:30.400Z,15.30
2023-05-19T22:34:57.025Z,15.30
2023-05-19T22:37:25.278Z,15.20
2023-05-19T22:39:51.910Z,15.20
2023-05-19T22:42:18.598Z,15.20
2023-05-19T22:44:45.878Z,15.20
2023-05-19T22:47:13.817Z,15.10
2023-05-19T22:49:41.501Z,15.10
2023-05-19T22:52:09.887Z,15.00
2023-05-19T22:54:37.240Z,15.00
2023-05-19T22:57:04.714Z,15.00
2023-05-19T22:59:31.395Z,14.90
2023-05-19T23:01:58.098Z,14.90
2023-05-19T23:04:24.834Z,14.90
2023-05-19T23:06:51.632Z,14.80
2023-05-19T23:09:18.361Z,14.80
2023-05-19T23:11:46.041Z,14.80
2023-05-19T23:14:12.800Z,14.80
2023-05-19T23:16:39.500Z,14.70
2023-05-19T23:19:06.537Z,14.70
2023-05-19T23:21:33.410Z,14.60
2023-05-19T23:24:00.088Z,14.60
2023-05-19T23:26:26.949Z,14.50
2023-05-19T23:28:53.637Z,14.50
2023-05-19T23:31:20.457Z,14.50
2023-05-19T23:33:47.109Z,14.40
2023-05-19T23:36:13.832Z,14.40
2023-05-19T23:38:40.557Z,14.40
2023-05-19T23:41:07.224Z,14.30
2023-05-19T23:43:33.941Z,14.30
2023-05-19T23:46:01.046Z,14.30
2023-05-19T23:48:29.168Z,14.20
2023-05-19T23:50:56.858Z,14.20
2023-05-19T23:53:23.832Z,14.20
2023-05-19T23:55:51.378Z,14.20
2023-05-19T23:58:18.391Z,14.10
